Time;durP1;ratioP1;P1;durP2;ratioP2;P2;SDS_P1;SDS_P2;PMS_P1;PMS_P2;Temp;Humidity;BMP_temperature;BMP_pressure;BME280_temperature;BME280_humidity;BME280_pressure;Samples;Min_cycle;Max_cycle;Signal;HPM_P1;HPM_P2
2021/03/31 00:00:36;;;;;;;50.10;33.13;;;;;;;6.90;77.05;98342.91;1851987;77;26470;-79
2021/03/31 00:03:15;;;;;;;54.63;33.85;;;;;;;6.97;77.13;98343.44;1851892;77;25751;-79
2021/03/31 00:05:44;;;;;;;52.48;33.50;;;;;;;7.00;77.15;98340.93;1852075;77;25744;-79
2021/03/31 00:08:11;;;;;;;62.25;34.53;;;;;;;7.03;77.09;98343.26;1852044;77;28628;-78
2021/03/31 00:10:46;;;;;;;109.52;53.68;;;;;;;7.03;77.09;98340.58;1851962;77;25689;-78
2021/03/31 00:13:15;;;;;;;73.02;41.25;;;;;;;7.02;77.03;98337.55;1851923;77;25692;-79
2021/03/31 00:15:43;;;;;;;64.27;39.20;;;;;;;7.03;77.07;98338.73;1852068;77;25825;-79
2021/03/31 00:18:14;;;;;;;66.05;36.98;;;;;;;7.04;77.05;98337.73;1852009;77;25665;-79
2021/03/31 00:20:42;;;;;;;56.92;35.10;;;;;;;7.04;77.06;98336.89;1851962;77;27460;-78
2021/03/31 00:23:13;;;;;;;56.45;34.48;;;;;;;7.02;77.06;98337.05;1849920;77;26283;-78
2021/03/31 00:25:42;;;;;;;57.60;34.25;;;;;;;7.03;77.06;98337.89;1843185;77;25676;-78
2021/03/31 00:28:11;;;;;;;54.08;34.25;;;;;;;7.02;77.10;98336.21;1843069;77;25768;-78
2021/03/31 00:30:41;;;;;;;54.93;32.25;;;;;;;7.04;77.09;98327.49;1843102;77;26157;-79
2021/03/31 00:33:10;;;;;;;48.73;30.72;;;;;;;7.05;77.04;98329.17;1843149;77;27461;-78
2021/03/31 00:35:38;;;;;;;48.92;30.95;;;;;;;7.01;76.89;98331.84;1842941;77;25753;-78
2021/03/31 00:38:07;;;;;;;53.10;31.23;;;;;;;6.95;76.77;98324.47;1843037;77;25733;-78
2021/03/31 00:40:51;;;;;;;47.50;29.35;;;;;;;6.91;76.71;98324.45;1843144;77;25782;-78
2021/03/31 00:43:19;;;;;;;48.15;29.07;;;;;;;6.81;76.55;98321.43;1843045;77;25623;-78
2021/03/31 00:45:46;;;;;;;44.35;27.67;;;;;;;6.77;76.64;98321.41;1843091;77;28438;-78
2021/03/31 00:48:15;;;;;;;46.88;29.37;;;;;;;6.72;76.59;98319.75;1843007;77;26076;-78
2021/03/31 00:50:47;;;;;;;46.63;28.87;;;;;;;6.67;76.56;98318.55;1842980;77;25768;-78
2021/03/31 00:53:19;;;;;;;46.10;29.57;;;;;;;6.62;76.51;98314.20;1842727;77;25744;-78
2021/03/31 00:55:46;;;;;;;;;;;;;;;6.55;76.50;98308.63;1845868;77;25303;-78
2021/03/31 00:58:15;;;;;;;46.50;27.05;;;;;;;6.50;76.56;98301.59;1843192;77;28443;-78
2021/03/31 01:00:42;;;;;;;46.98;30.48;;;;;;;6.43;76.57;98302.73;1842909;77;26140;-78
2021/03/31 01:03:11;;;;;;;52.88;28.47;;;;;;;6.38;76.52;98302.91;1843022;77;25719;-78
2021/03/31 01:05:38;;;;;;;55.15;28.73;;;;;;;6.34;76.58;98305.56;1843121;77;25806;-78
2021/03/31 01:08:06;;;;;;;51.20;29.63;;;;;;;6.31;76.60;98308.56;1843140;77;25799;-78
2021/03/31 01:10:53;;;;;;;60.25;32.38;;;;;;;6.25;76.62;98302.52;1843173;77;27485;-78
2021/03/31 01:13:50;;;;;;;64.27;32.95;;;;;;;6.20;76.71;98299.47;1843082;77;25662;-77
2021/03/31 01:16:41;;;;;;;60.65;29.50;;;;;;;6.13;77.09;98297.45;1822202;77;25853;-79
2021/03/31 01:19:47;;;;;;;58.50;30.65;;;;;;;6.11;77.09;98303.47;1843126;77;25656;-79
2021/03/31 01:22:59;;;;;;;66.00;31.70;;;;;;;6.08;77.12;98297.09;1841585;77;25706;-78
2021/03/31 01:25:50;;;;;;;55.00;30.50;;;;;;;6.00;77.22;98294.88;1843107;77;27481;-78
2021/03/31 01:29:13;;;;;;;62.00;30.12;;;;;;;5.95;77.44;98295.35;1843058;77;25724;-78
2021/03/31 01:32:05;;;;;;;;;;;;;;;5.95;77.57;98303.39;1845915;77;25704;-79
2021/03/31 01:34:50;;;;;;;63.90;32.00;;;;;;;6.01;77.87;98300.08;1796925;79;26364;-78
2021/03/31 01:37:46;;;;;;;61.77;30.12;;;;;;;6.07;77.94;98295.91;1833840;77;25717;-79
2021/03/31 01:40:17;;;;;;;55.03;30.92;;;;;;;6.06;77.91;98295.06;1808271;77;28442;-78
2021/03/31 01:43:00;;;;;;;55.83;31.00;;;;;;;6.07;77.94;98300.77;1842890;77;26208;-79
2021/03/31 01:45:32;;;;;;;61.00;31.07;;;;;;;6.11;77.98;98302.13;1842992;77;25799;-78
2021/03/31 01:48:09;;;;;;;57.75;32.45;;;;;;;6.19;78.00;98299.13;1842990;77;25799;-79
2021/03/31 01:50:38;;;;;;;61.40;33.13;;;;;;;6.22;77.99;98302.84;1843030;77;25654;-79
2021/03/31 01:53:06;;;;;;;62.58;33.25;;;;;;;6.26;77.97;98301.52;1843207;77;28326;-78
2021/03/31 01:55:35;;;;;;;64.92;32.88;;;;;;;6.27;77.98;98300.02;1843033;77;25619;-78
2021/03/31 01:58:05;;;;;;;70.65;34.63;;;;;;;6.24;77.95;98294.14;1842952;77;25646;-78
2021/03/31 02:00:33;;;;;;;67.03;33.35;;;;;;;6.18;78.00;98296.11;1843089;77;26251;-79
2021/03/31 02:03:01;;;;;;;84.52;35.70;;;;;;;6.14;78.16;98292.44;1842992;77;26261;-79
2021/03/31 02:05:31;;;;;;;87.90;35.68;;;;;;;6.16;78.31;98295.45;1842908;77;27296;-79
2021/03/31 02:07:59;;;;;;;90.77;35.73;;;;;;;6.17;78.37;98300.63;1842957;77;26136;-78
2021/03/31 02:10:30;;;;;;;70.65;34.78;;;;;;;6.18;78.48;98298.79;1842962;77;25690;-79
2021/03/31 02:12:59;;;;;;;79.25;35.80;;;;;;;6.19;78.49;98306.67;1843017;77;26254;-79
2021/03/31 02:15:29;;;;;;;82.08;36.23;;;;;;;6.18;78.48;98301.47;1842987;77;25899;-79
2021/03/31 02:18:01;;;;;;;84.80;35.50;;;;;;;6.19;78.55;98306.67;1843108;77;27467;-79
2021/03/31 02:20:29;;;;;;;80.47;36.80;;;;;;;6.19;78.55;98301.81;1843140;77;25682;-79
2021/03/31 02:23:00;;;;;;;85.97;35.50;;;;;;;6.18;78.58;98306.83;1843001;77;25305;-79
2021/03/31 02:25:27;;;;;;;79.22;36.35;;;;;;;6.19;78.67;98303.16;1856467;77;26713;-80
2021/03/31 02:27:55;;;;;;;87.85;36.98;;;;;;;6.19;78.71;98297.79;1858224;77;25758;-78
2021/03/31 02:30:27;;;;;;;74.80;38.73;;;;;;;6.19;78.73;98303.16;1858319;77;27481;-79
2021/03/31 02:33:01;;;;;;;85.95;40.92;;;;;;;6.17;78.70;98300.63;1858224;77;25711;-79
2021/03/31 02:35:31;;;;;;;91.45;42.90;;;;;;;6.17;78.74;98305.98;1858300;77;25643;-79
2021/03/31 02:38:06;;;;;;;92.60;42.78;;;;;;;6.15;78.75;98306.68;1858154;77;25735;-79
2021/03/31 02:40:36;;;;;;;99.60;45.28;;;;;;;6.13;78.78;98304.16;1858315;77;25749;-79
2021/03/31 02:43:07;;;;;;;101.67;46.92;;;;;;;6.12;78.78;98299.80;1858061;77;28427;-80
2021/03/31 02:45:36;;;;;;;101.60;47.45;;;;;;;6.10;78.73;98296.43;1858133;77;25421;-79
2021/03/31 02:48:07;;;;;;;89.37;46.08;;;;;;;6.09;78.69;98298.77;1858184;77;25636;-79
2021/03/31 02:50:35;;;;;;;99.60;48.40;;;;;;;6.06;78.66;98296.91;1858204;77;25698;-79
2021/03/31 02:53:04;;;;;;;112.22;47.93;;;;;;;6.04;78.69;98293.03;1858269;77;25757;-78
2021/03/31 02:55:32;;;;;;;100.47;45.00;;;;;;;6.03;78.69;98291.39;1858163;77;28030;-79
2021/03/31 02:58:01;;;;;;;91.85;45.48;;;;;;;6.00;78.74;98293.54;1858190;77;26136;-78
2021/03/31 03:00:29;;;;;;;72.87;37.00;;;;;;;5.99;78.76;98290.02;1858218;77;25701;-79
2021/03/31 03:02:58;;;;;;;72.45;35.90;;;;;;;5.98;78.72;98289.68;1858265;77;26409;-79
2021/03/31 03:05:26;;;;;;;67.22;37.63;;;;;;;5.96;78.65;98292.17;1858156;77;25754;-79
2021/03/31 03:07:53;;;;;;;84.32;39.80;;;;;;;5.96;78.73;98291.67;1858149;77;27532;-79
2021/03/31 03:10:21;;;;;;;84.52;42.38;;;;;;;5.95;78.78;98285.13;1858134;77;25678;-79
2021/03/31 03:12:57;;;;;;;81.70;38.38;;;;;;;5.94;78.88;98289.65;1858242;77;25630;-77
2021/03/31 03:15:28;;;;;;;77.12;38.70;;;;;;;5.93;78.96;98287.97;1857450;77;26212;-77
2021/03/31 03:17:56;;;;;;;62.95;37.88;;;;;;;5.92;78.92;98288.97;1858519;77;25773;-78
2021/03/31 03:20:25;;;;;;;65.12;36.03;;;;;;;5.90;78.95;98292.33;1858349;77;27696;-79
2021/03/31 03:22:56;;;;;;;69.25;39.50;;;;;;;5.86;78.99;98292.27;1858319;77;25682;-79
2021/03/31 03:25:26;;;;;;;72.00;39.58;;;;;;;5.87;79.06;98285.91;1847536;77;25677;-79
2021/03/31 03:27:54;;;;;;;70.72;39.00;;;;;;;5.89;79.12;98281.27;1843080;77;25681;-77
2021/03/31 03:30:25;;;;;;;69.75;40.78;;;;;;;5.88;79.10;98282.27;1843243;77;25691;-79
2021/03/31 03:32:53;;;;;;;71.55;39.90;;;;;;;5.89;79.14;98285.30;1843181;77;28476;-79
2021/03/31 03:35:27;;;;;;;67.58;40.67;;;;;;;5.86;79.14;98280.21;1843004;77;25777;-78
2021/03/31 03:37:56;;;;;;;81.92;40.15;;;;;;;5.87;79.20;98283.23;1843110;77;25861;-79
2021/03/31 03:40:28;;;;;;;74.67;39.00;;;;;;;5.86;79.24;98272.17;1843032;77;25680;-78
2021/03/31 03:42:55;;;;;;;88.78;38.92;;;;;;;5.86;79.32;98273.52;1843285;77;25725;-78
2021/03/31 03:45:25;;;;;;;72.03;37.48;;;;;;;5.86;79.33;98272.17;1843037;77;27422;-78
2021/03/31 03:47:54;;;;;;;71.97;38.75;;;;;;;5.85;79.35;98273.67;1842990;77;26136;-78
2021/03/31 03:50:22;;;;;;;72.05;39.18;;;;;;;5.84;79.33;98274.17;1843161;77;25657;-78
2021/03/31 03:52:52;;;;;;;90.75;39.65;;;;;;;5.85;79.38;98271.83;1756936;77;25747;-76
2021/03/31 03:55:22;;;;;;;88.33;39.18;;;;;;;5.84;79.41;98270.15;1740820;82;25794;-76
2021/03/31 03:57:50;;;;;;;92.08;39.53;;;;;;;5.85;79.45;98275.84;1740659;82;28490;-76
2021/03/31 04:00:21;;;;;;;80.03;37.13;;;;;;;5.85;79.46;98277.19;1740728;82;26299;-76
2021/03/31 04:02:53;;;;;;;66.55;35.70;;;;;;;5.85;79.48;98282.55;1740868;82;32714;-78
2021/03/31 04:05:22;;;;;;;82.13;36.83;;;;;;;5.86;79.53;98281.55;1740805;82;25687;-75
2021/03/31 04:07:49;;;;;;;73.15;36.20;;;;;;;5.87;79.59;98282.39;1740752;81;25807;-76
2021/03/31 04:10:19;;;;;;;64.75;37.23;;;;;;;5.87;79.55;98280.55;1740718;81;27511;-75
2021/03/31 04:12:48;;;;;;;68.07;37.40;;;;;;;5.85;79.52;98279.87;1740648;82;25713;-75
2021/03/31 04:15:16;;;;;;;75.10;37.38;;;;;;;5.82;79.49;98278.00;1740720;82;25680;-76
2021/03/31 04:17:45;;;;;;;83.20;40.17;;;;;;;5.77;79.53;98271.30;1740791;81;26400;-77
2021/03/31 04:20:22;;;;;;;74.85;39.85;;;;;;;5.75;79.57;98271.12;1740760;81;25798;-76
2021/03/31 04:22:51;;;;;;;82.85;44.23;;;;;;;5.75;79.69;98277.31;1740765;82;27568;-76
2021/03/31 04:25:22;;;;;;;72.75;43.33;;;;;;;5.78;79.73;98268.13;1740612;82;26005;-77
2021/03/31 04:27:52;;;;;;;76.97;42.73;;;;;;;5.78;79.73;98268.13;1740979;81;25766;-76
2021/03/31 04:30:23;;;;;;;74.10;41.95;;;;;;;5.80;79.75;98270.13;1740839;82;25781;-75
2021/03/31 04:32:52;;;;;;;74.97;43.08;;;;;;;5.80;79.71;98272.80;1740762;82;25801;-76
2021/03/31 04:35:22;;;;;;;87.67;39.63;;;;;;;5.79;79.66;98273.83;1740701;81;27481;-76
2021/03/31 04:37:50;;;;;;;108.10;44.00;;;;;;;5.80;79.59;98275.48;1740676;81;26467;-76
2021/03/31 04:40:21;;;;;;;89.35;41.25;;;;;;;5.77;79.44;98273.14;1740764;81;25707;-76
2021/03/31 04:42:49;;;;;;;103.00;43.85;;;;;;;5.66;79.36;98274.27;1715860;82;25791;-76
2021/03/31 04:45:18;;;;;;;84.13;43.35;;;;;;;5.61;79.46;98273.05;1740759;82;25846;-76
2021/03/31 04:47:45;;;;;;;82.42;39.53;;;;;;;5.60;79.55;98271.37;1740788;81;27509;-76
2021/03/31 04:50:14;;;;;;;74.67;37.38;;;;;;;5.59;79.57;98273.70;1740606;81;26475;-76
2021/03/31 04:52:42;;;;;;;80.15;38.10;;;;;;;5.56;79.56;98272.67;1739280;82;25734;-76
2021/03/31 04:55:12;;;;;;;79.67;40.85;;;;;;;5.54;79.57;98266.66;1737284;82;25637;-76
2021/03/31 04:57:39;;;;;;;80.62;39.42;;;;;;;5.53;79.60;98269.00;1737345;81;25753;-75
2021/03/31 05:00:09;;;;;;;76.60;36.25;;;;;;;5.54;79.66;98268.00;1737308;82;27499;-77
2021/03/31 05:02:36;;;;;;;75.78;36.05;;;;;;;5.55;79.69;98262.98;1737241;82;25748;-78
2021/03/31 05:05:05;;;;;;;82.57;38.48;;;;;;;5.54;79.71;98265.32;1737276;82;25810;-78
2021/03/31 05:07:33;;;;;;;70.95;38.40;;;;;;;5.54;79.71;98262.64;1737255;81;25798;-77
2021/03/31 05:10:00;;;;;;;62.85;38.80;;;;;;;5.54;79.77;98258.13;1737381;82;25988;-76
2021/03/31 05:12:28;;;;;;;77.62;40.83;;;;;;;5.57;79.80;98266.32;1737252;81;28504;-76
2021/03/31 05:14:56;;;;;;;71.90;40.98;;;;;;;5.60;79.84;98259.31;1737243;82;26310;-76
2021/03/31 05:17:24;;;;;;;75.80;40.78;;;;;;;5.61;79.85;98260.99;1737225;82;26161;-77
2021/03/31 05:19:52;;;;;;;84.42;40.43;;;;;;;5.63;79.86;98263.02;1737233;82;25882;-77
2021/03/31 05:22:19;;;;;;;76.70;42.85;;;;;;;5.64;79.94;98264.20;1737337;82;25789;-77
2021/03/31 05:24:47;;;;;;;90.62;44.40;;;;;;;5.67;80.02;98268.41;1737259;81;27495;-76
2021/03/31 05:27:14;;;;;;;80.95;43.73;;;;;;;5.72;80.02;98264.23;1737167;82;25818;-76
2021/03/31 05:29:45;;;;;;;79.12;43.45;;;;;;;5.78;80.03;98262.77;1737261;82;25677;-77
2021/03/31 05:32:12;;;;;;;76.40;42.83;;;;;;;5.78;79.98;98265.45;1737157;82;25818;-76
2021/03/31 05:34:40;;;;;;;84.75;42.58;;;;;;;5.82;79.98;98276.16;1737253;82;25720;-76
2021/03/31 05:37:08;;;;;;;72.53;40.55;;;;;;;5.84;79.93;98275.51;1737189;82;28909;-77
2021/03/31 05:39:35;;;;;;;82.17;40.50;;;;;;;5.83;79.83;98279.19;1737243;82;25799;-77
2021/03/31 05:42:04;;;;;;;72.80;40.85;;;;;;;5.80;79.80;98280.84;1737220;82;25310;-77
2021/03/31 05:44:32;;;;;;;93.92;36.75;;;;;;;5.82;79.85;98280.19;1737229;82;25827;-76
2021/03/31 05:47:00;;;;;;;96.10;36.65;;;;;;;5.83;79.86;98282.36;1737260;82;25732;-77
2021/03/31 05:49:29;;;;;;;78.47;34.75;;;;;;;5.76;79.74;98279.50;1737239;82;27498;-77
2021/03/31 05:51:58;;;;;;;89.05;37.40;;;;;;;5.65;79.70;98277.09;1737181;81;26150;-77
2021/03/31 05:54:26;;;;;;;72.50;39.80;;;;;;;5.64;79.90;98274.08;1737167;81;26488;-76
2021/03/31 05:56:54;;;;;;;84.07;41.00;;;;;;;5.64;80.01;98278.94;1737243;82;25711;-76
2021/03/31 05:59:22;;;;;;;91.17;40.58;;;;;;;5.66;80.19;98271.58;1737341;82;25688;-76
2021/03/31 06:01:50;;;;;;;92.25;39.70;;;;;;;5.72;80.32;98271.43;1737187;81;28480;-77
2021/03/31 06:04:18;;;;;;;77.20;38.67;;;;;;;5.73;80.32;98275.79;1737109;82;25728;-76
2021/03/31 06:06:46;;;;;;;98.92;45.23;;;;;;;5.70;80.34;98270.75;1737324;81;25699;-76
2021/03/31 06:09:13;;;;;;;91.67;43.78;;;;;;;5.76;80.51;98267.45;1737202;81;26503;-78
2021/03/31 06:11:54;;;;;;;117.40;50.52;;;;;;;5.84;80.59;98268.81;1737245;82;25866;-76
2021/03/31 06:14:40;;;;;;;107.52;50.43;;;;;;;5.91;80.70;98269.05;1737262;81;27471;-76
2021/03/31 06:17:12;;;;;;;102.02;48.05;;;;;;;5.99;80.70;98268.58;1737129;82;25768;-77
2021/03/31 06:19:43;;;;;;;115.00;49.03;;;;;;;6.09;80.72;98265.77;1737385;82;26538;-76
2021/03/31 06:22:25;;;;;;;114.22;49.03;;;;;;;6.13;80.63;98266.62;1737247;82;25791;-76
2021/03/31 06:25:09;;;;;;;96.85;43.87;;;;;;;6.21;80.63;98264.96;1736444;82;25810;-76
2021/03/31 06:27:37;;;;;;;84.45;44.10;;;;;;;6.26;80.60;98257.28;1736837;81;27515;-76
2021/03/31 06:30:07;;;;;;;85.55;43.13;;;;;;;6.34;80.65;98259.97;1737295;82;25715;-76
2021/03/31 06:32:41;;;;;;;81.97;41.77;;;;;;;6.41;80.60;98256.96;1737226;82;25794;-77
2021/03/31 06:35:19;;;;;;;87.27;43.95;;;;;;;6.43;80.50;98249.09;1737159;81;25752;-76
2021/03/31 06:37:47;;;;;;;95.03;49.90;;;;;;;6.53;80.61;98250.28;1734972;82;25846;-77
2021/03/31 06:40:33;;;;;;;91.57;49.90;;;;;;;6.64;80.66;98243.25;1737227;82;27476;-77
2021/03/31 06:43:19;;;;;;;81.72;46.30;;;;;;;6.74;80.65;98237.24;1737169;82;26243;-77
2021/03/31 06:45:52;;;;;;;77.30;44.18;;;;;;;6.84;80.67;98235.23;1737202;82;25735;-78
2021/03/31 06:48:22;;;;;;;86.67;47.90;;;;;;;6.98;80.62;98234.22;1737405;82;26275;-78
2021/03/31 06:50:49;;;;;;;95.45;48.42;;;;;;;7.09;80.61;98232.53;1737451;82;25282;-78
2021/03/31 06:53:27;;;;;;;100.07;49.30;;;;;;;7.22;80.71;98231.52;1737315;82;28495;-78
2021/03/31 06:56:01;;;;;;;94.50;50.10;;;;;;;7.35;80.72;98225.63;1737161;81;26367;-78
2021/03/31 06:58:30;;;;;;;89.60;49.88;;;;;;;7.46;80.62;98230.13;1737354;82;25695;-79
2021/03/31 07:00:57;;;;;;;86.45;49.98;;;;;;;7.56;80.62;98229.42;1737416;82;26006;-77
2021/03/31 07:03:25;;;;;;;88.30;49.38;;;;;;;7.65;80.60;98225.36;1737403;82;25841;-78
2021/03/31 07:05:53;;;;;;;80.00;46.08;;;;;;;7.75;80.62;98217.92;1737350;82;27532;-77
2021/03/31 07:08:21;;;;;;;70.17;41.98;;;;;;;7.84;80.53;98220.94;1737180;82;25700;-79
2021/03/31 07:10:52;;;;;;;64.75;41.02;;;;;;;7.91;80.58;98222.74;1737418;82;25732;-78
2021/03/31 07:13:31;;;;;;;65.20;40.80;;;;;;;8.02;80.55;98217.98;1737320;82;25827;-78
2021/03/31 07:16:02;;;;;;;63.92;40.78;;;;;;;8.13;80.62;98214.90;1737390;82;25754;-79
2021/03/31 07:18:32;;;;;;;59.25;37.38;;;;;;;8.24;80.79;98217.19;1737447;82;27824;-79
2021/03/31 07:21:01;;;;;;;46.20;33.92;;;;;;;8.39;81.07;98224.03;1737350;82;26545;-80
2021/03/31 07:23:29;;;;;;;46.90;33.50;;;;;;;8.56;81.10;98222.92;1737414;82;25829;-80
2021/03/31 07:25:58;;;;;;;50.38;36.28;;;;;;;8.71;80.98;98217.08;1737272;82;25699;-80
2021/03/31 07:28:29;;;;;;;52.10;34.40;;;;;;;8.86;80.87;98216.63;1737412;82;25786;-80
2021/03/31 07:30:58;;;;;;;52.43;32.90;;;;;;;9.01;80.72;98215.33;1737625;82;28473;-80
2021/03/31 07:33:34;;;;;;;55.00;36.45;;;;;;;9.15;80.73;98214.53;1737337;82;26213;-80
2021/03/31 07:36:02;;;;;;;58.33;36.15;;;;;;;9.35;80.68;98212.98;1737420;82;25715;-80
2021/03/31 07:38:30;;;;;;;57.90;36.15;;;;;;;9.61;80.58;98208.49;1737395;82;25743;-80
2021/03/31 07:40:59;;;;;;;48.92;32.95;;;;;;;9.99;80.46;98207.03;1737358;82;25805;-80
2021/03/31 07:43:37;;;;;;;54.13;36.20;;;;;;;10.43;80.20;98207.80;1737299;82;27497;-81
2021/03/31 07:46:09;;;;;;;55.98;37.93;;;;;;;10.90;79.95;98203.69;1737274;82;26367;-81
2021/03/31 07:48:38;;;;;;;61.58;40.85;;;;;;;11.39;79.51;98197.43;1737485;82;25723;-81
2021/03/31 07:51:26;;;;;;;71.15;42.98;;;;;;;11.76;78.92;98194.37;1737409;82;26472;-81
2021/03/31 07:53:57;;;;;;;74.05;48.63;;;;;;;12.21;78.51;98198.84;1735574;81;25811;-81
2021/03/31 07:56:35;;;;;;;74.37;46.98;;;;;;;12.69;77.89;98198.77;1732801;82;27578;-80
2021/03/31 07:59:11;;;;;;;71.55;44.70;;;;;;;13.04;77.33;98192.14;1732823;82;26042;-80
2021/03/31 08:01:56;;;;;;;70.95;44.48;;;;;;;13.35;76.80;98180.72;1714604;83;25839;-82
2021/03/31 08:04:26;;;;;;;76.45;44.33;;;;;;;13.64;76.28;98187.57;1732883;82;25518;-81
2021/03/31 08:06:56;;;;;;;67.08;42.40;;;;;;;14.00;76.23;98178.91;1733527;82;26175;-81
2021/03/31 08:09:30;;;;;;;65.57;39.15;;;;;;;14.34;75.54;98183.14;1732966;81;28453;-81
2021/03/31 08:12:01;;;;;;;56.95;38.25;;;;;;;14.63;74.92;98175.79;1732810;82;26134;-81
2021/03/31 08:14:35;;;;;;;50.95;31.87;;;;;;;15.04;74.88;98174.47;1714640;83;25755;-81
2021/03/31 08:17:07;;;;;;;42.03;28.42;;;;;;;15.33;74.05;98169.73;1732946;82;25796;-79
2021/03/31 08:19:46;;;;;;;43.48;29.90;;;;;;;15.57;73.66;98173.52;1733117;82;25757;-81
2021/03/31 08:22:34;;;;;;;46.08;30.75;;;;;;;15.99;73.25;98166.88;1699753;83;27688;-81
2021/03/31 08:25:19;;;;;;;56.95;34.00;;;;;;;16.39;72.55;98161.77;1732766;82;25695;-81
2021/03/31 08:28:08;;;;;;;51.42;31.15;;;;;;;16.83;72.00;98160.00;1732858;82;25651;-82
2021/03/31 08:30:39;;;;;;;56.18;32.08;;;;;;;17.27;70.91;98159.18;1714533;83;25966;-82
2021/03/31 08:33:07;;;;;;;51.77;30.80;;;;;;;17.63;70.41;98149.43;1732856;82;25838;-82
2021/03/31 08:35:36;;;;;;;48.15;30.55;;;;;;;18.02;70.11;98148.37;1732785;82;27502;-81
2021/03/31 08:38:09;;;;;;;47.10;29.67;;;;;;;18.32;69.27;98143.55;1733200;82;25763;-82
2021/03/31 08:40:38;;;;;;;47.75;30.15;;;;;;;18.63;68.41;98142.79;1732251;82;25797;-82
2021/03/31 08:43:06;;;;;;;44.35;29.65;;;;;;;18.95;68.08;98145.85;1732834;82;26553;-82
2021/03/31 08:45:39;;;;;;;50.58;29.52;;;;;;;19.26;67.37;98136.23;1714477;83;25793;-82
2021/03/31 08:48:09;;;;;;;37.95;26.65;;;;;;;19.47;66.92;98137.38;1714455;83;27486;-83
2021/03/31 08:50:41;;;;;;;37.58;26.57;;;;;;;19.69;65.71;98132.80;1714264;83;26741;-83
2021/03/31 08:53:11;;;;;;;36.17;26.42;;;;;;;19.78;64.83;98125.83;1732913;82;25830;-82
2021/03/31 08:55:41;;;;;;;35.90;25.68;;;;;;;20.03;65.12;98128.08;1730143;82;26470;-83
2021/03/31 08:58:12;;;;;;;39.70;25.27;;;;;;;20.27;64.13;98129.48;1730128;82;25845;-82
2021/03/31 09:00:51;;;;;;;35.33;23.67;;;;;;;20.27;63.10;98130.03;1729909;82;28480;-82
2021/03/31 09:03:20;;;;;;;33.80;23.75;;;;;;;20.28;63.39;98120.17;1729876;82;25674;-83
2021/03/31 09:06:00;;;;;;;33.60;22.42;;;;;;;20.51;62.86;98118.27;1730009;82;25743;-84
2021/03/31 09:08:30;;;;;;;27.98;21.05;;;;;;;20.71;62.16;98107.49;1729986;82;25758;-84
2021/03/31 09:11:02;;;;;;;31.65;21.02;;;;;;;20.93;61.27;98101.93;1730000;82;25736;-82
2021/03/31 09:13:36;;;;;;;30.30;21.97;;;;;;;21.00;61.24;98094.33;1730036;82;32268;-81
2021/03/31 09:16:14;;;;;;;30.60;21.37;;;;;;;21.21;60.19;98101.66;1729909;82;26260;-84
2021/03/31 09:18:43;;;;;;;29.40;22.22;;;;;;;21.20;59.63;98087.11;1729608;82;25746;-82
2021/03/31 09:21:13;;;;;;;28.70;20.50;;;;;;;21.37;59.33;98088.87;1730070;82;25785;-84
2021/03/31 09:23:47;;;;;;;32.53;21.42;;;;;;;21.63;58.88;98083.80;1730028;82;25759;-83
2021/03/31 09:26:15;;;;;;;28.50;20.37;;;;;;;21.71;57.85;98064.09;1729910;82;28401;-83
2021/03/31 09:28:42;;;;;;;32.00;21.27;;;;;;;21.71;57.85;98064.09;1729875;82;25963;-82
2021/03/31 09:31:20;;;;;;;30.35;20.88;;;;;;;22.14;57.35;98071.71;1729940;82;25801;-82
2021/03/31 09:33:44;;;;;;;23.22;18.10;;;;;;;22.14;57.35;98071.71;1728391;82;25781;-83
2021/03/31 09:36:16;;;;;;;25.27;18.30;;;;;;;22.46;56.90;98072.34;1729837;82;25716;-83
2021/03/31 09:38:45;;;;;;;23.40;16.55;;;;;;;22.63;55.72;98059.73;1729952;82;27443;-83
2021/03/31 09:41:13;;;;;;;23.55;16.40;;;;;;;22.95;55.82;98073.27;1729868;82;25284;-82
2021/03/31 09:43:42;;;;;;;25.95;18.95;;;;;;;23.16;54.99;98069.44;1729967;82;25885;-83
2021/03/31 09:46:10;;;;;;;27.98;18.32;;;;;;;23.19;55.03;98066.11;1729822;82;26452;-84
2021/03/31 09:48:38;;;;;;;26.85;17.15;;;;;;;23.15;54.47;98057.31;1729933;82;25711;-83
2021/03/31 09:51:13;;;;;;;23.47;16.48;;;;;;;23.26;54.28;98055.66;1729977;82;27482;-82
2021/03/31 09:53:41;;;;;;;27.87;17.12;;;;;;;23.61;53.77;98064.44;1729975;82;26095;-83
2021/03/31 09:56:12;;;;;;;23.20;15.80;;;;;;;23.84;53.28;98068.50;1730040;82;25662;-83
2021/03/31 09:58:41;;;;;;;23.50;16.62;;;;;;;24.13;52.87;98064.53;1729977;82;25750;-83
2021/03/31 10:01:14;;;;;;;24.70;16.97;;;;;;;24.34;51.72;98057.83;1730005;82;25751;-83
2021/03/31 10:03:45;;;;;;;25.32;18.20;;;;;;;24.42;51.51;98061.91;1730055;82;27470;-84
2021/03/31 10:06:25;;;;;;;26.05;19.23;;;;;;;24.60;51.30;98050.22;1729886;82;25691;-83
2021/03/31 10:08:53;;;;;;;24.70;19.20;;;;;;;24.73;51.11;98041.86;1729999;82;25740;-83
2021/03/31 10:11:37;;;;;;;24.57;17.82;;;;;;;24.88;50.67;98043.66;1729828;82;25726;-83
2021/03/31 10:14:06;;;;;;;23.20;16.57;;;;;;;25.10;49.96;98039.38;1729897;82;25853;-83
2021/03/31 10:16:40;;;;;;;25.40;19.00;;;;;;;25.13;49.31;98027.72;1729948;82;27495;-82
2021/03/31 10:19:09;;;;;;;35.92;29.12;;;;;;;25.29;49.23;98029.80;1729847;82;25662;-83
2021/03/31 10:21:39;;;;;;;24.95;16.02;;;;;;;25.53;49.00;98025.67;1729976;82;25790;-83
2021/03/31 10:24:07;;;;;;;21.82;13.62;;;;;;;25.56;48.08;98025.66;1729902;82;26294;-84
2021/03/31 10:26:37;;;;;;;24.30;14.58;;;;;;;25.44;47.72;98022.73;1729979;82;25719;-83
2021/03/31 10:29:24;;;;;;;19.73;14.43;;;;;;;25.56;47.77;98023.72;1730001;82;27510;-80
2021/03/31 10:31:54;;;;;;;32.93;20.85;;;;;;;25.56;47.30;98020.95;1729868;82;26032;-82
2021/03/31 10:34:22;;;;;;;23.05;16.32;;;;;;;25.70;47.61;98021.94;1730007;82;25715;-83
2021/03/31 10:37:04;;;;;;;16.97;12.80;;;;;;;26.00;46.89;98015.19;1729954;82;26464;-83
2021/03/31 10:48:58;;;;;;;13.70;9.43;;;;;;;26.13;45.31;97988.19;1729908;82;25735;-83
2021/03/31 10:51:33;;;;;;;8.00;4.95;;;;;;;26.26;44.78;97985.80;1729780;82;25729;-83
2021/03/31 10:54:01;;;;;;;8.40;4.53;;;;;;;26.42;44.30;97983.11;1729935;82;25785;-82
2021/03/31 10:56:30;;;;;;;7.47;4.97;;;;;;;26.58;44.42;97976.19;1729854;82;27503;-83
2021/03/31 10:58:57;;;;;;;12.40;6.85;;;;;;;26.90;44.33;97978.17;1729816;82;25675;-84
2021/03/31 11:01:25;;;;;;;3.00;2.27;;;;;;;27.07;43.28;97974.84;1729855;82;25733;-84
2021/03/31 11:03:53;;;;;;;4.17;2.35;;;;;;;27.08;42.66;97973.72;1729863;82;26299;-83
2021/03/31 11:06:21;;;;;;;4.78;2.80;;;;;;;27.09;42.14;97967.06;1729814;82;25726;-83
2021/03/31 11:08:51;;;;;;;2.85;2.42;;;;;;;27.18;42.28;97960.50;1729729;82;27608;-83
2021/03/31 11:11:19;;;;;;;5.40;2.17;;;;;;;27.18;41.28;97962.45;1729668;82;25826;-83
2021/03/31 11:13:47;;;;;;;5.28;2.40;;;;;;;27.33;41.25;97960.78;1729854;82;26388;-84
2021/03/31 11:16:15;;;;;;;5.03;2.25;;;;;;;27.60;40.92;97959.45;1729908;82;25769;-81
2021/03/31 11:18:55;;;;;;;3.67;1.85;;;;;;;27.59;40.16;97956.98;1729834;81;25888;-84
2021/03/31 11:26:52;;;;;;;4.12;1.95;;;;;;;27.80;40.36;97945.72;1729860;82;25751;-83
2021/03/31 11:29:20;;;;;;;5.60;2.10;;;;;;;28.03;39.67;97945.21;1729807;82;25646;-81
2021/03/31 11:31:48;;;;;;;3.70;1.90;;;;;;;28.06;39.11;97942.39;1730067;82;25855;-84
2021/03/31 11:34:15;;;;;;;5.12;1.57;;;;;;;28.01;39.02;97936.41;1729967;82;28473;-85
2021/03/31 11:36:43;;;;;;;5.58;2.00;;;;;;;27.34;38.15;97931.94;1730001;82;25774;-84
2021/03/31 11:39:11;;;;;;;6.40;2.33;;;;;;;27.06;38.93;97932.47;1729973;82;25806;-83
2021/03/31 11:41:38;;;;;;;4.22;2.30;;;;;;;26.81;37.77;97930.12;1729979;82;25712;-84
2021/03/31 11:44:07;;;;;;;6.00;2.60;;;;;;;26.44;38.38;97929.66;1730017;82;25800;-79
2021/03/31 11:46:34;;;;;;;3.27;2.00;;;;;;;26.44;39.17;97915.82;1729998;82;27502;-84
2021/03/31 11:49:02;;;;;;;2.77;1.80;;;;;;;26.85;38.75;97915.37;1729876;82;26066;-82
2021/03/31 11:51:30;;;;;;;4.42;2.17;;;;;;;27.30;38.62;97914.84;1729979;82;25734;-83
2021/03/31 11:53:58;;;;;;;2.37;1.95;;;;;;;27.62;37.84;97913.95;1730014;82;25885;-84
2021/03/31 11:56:26;;;;;;;17.62;3.60;;;;;;;27.45;37.95;97916.75;1725565;82;25798;-84
2021/03/31 11:58:55;;;;;;;3.62;1.90;;;;;;;27.62;37.84;97908.41;1724521;83;27496;-81